createdAt,value
2024-03-02T00:01:30.103Z,101066.41
2024-03-02T00:04:00.870Z,101065.59
2024-03-02T00:06:31.664Z,101068.09
2024-03-02T00:09:02.661Z,101077.47
2024-03-02T00:11:33.285Z,101078.94
2024-03-02T00:14:03.778Z,101081.44
2024-03-02T00:16:35.159Z,101083.09
2024-03-02T00:19:08.166Z,101094.53
2024-03-02T00:21:39.216Z,101093.50
2024-03-02T00:24:30.683Z,101090.16
2024-03-02T00:27:01.846Z,101103.88
2024-03-02T00:29:32.382Z,101099.75
2024-03-02T00:32:04.670Z,101074.09
2024-03-02T00:34:35.749Z,101105.97
2024-03-02T00:37:06.456Z,101104.31
2024-03-02T00:39:37.761Z,101127.19
2024-03-02T00:42:09.253Z,101128.88
2024-03-02T00:44:40.025Z,101126.56
2024-03-02T00:47:11.059Z,101133.84
2024-03-02T00:49:42.008Z,101128.03
2024-03-02T00:52:13.210Z,101129.69
2024-03-02T00:54:44.188Z,101134.06
2024-03-02T00:57:15.164Z,101135.94
2024-03-02T00:59:45.705Z,101135.94
2024-03-02T01:02:16.410Z,101121.59
2024-03-02T01:04:47.030Z,101148.41
2024-03-02T01:07:17.804Z,101157.16
2024-03-02T01:09:49.088Z,101143.00
2024-03-02T01:12:20.109Z,101156.31
2024-03-02T01:14:50.873Z,101166.72
2024-03-02T01:17:21.546Z,101167.53
2024-03-02T01:19:52.043Z,101175.47
2024-03-02T01:22:27.223Z,101176.28
2024-03-02T01:24:57.802Z,101185.88
2024-03-02T01:27:29.262Z,101181.13
2024-03-02T01:30:02.014Z,101178.81
2024-03-02T01:32:32.828Z,101181.13
2024-03-02T01:35:03.336Z,101178.81
2024-03-02T01:37:33.760Z,101185.69
2024-03-02T01:40:05.147Z,101181.50
2024-03-02T01:42:36.992Z,101181.34
2024-03-02T01:45:09.541Z,101159.44
2024-03-02T01:47:40.235Z,101198.38
2024-03-02T01:50:11.211Z,101199.66
2024-03-02T01:52:42.127Z,101200.88
2024-03-02T01:55:12.832Z,101200.84
2024-03-02T01:57:43.153Z,101206.69
2024-03-02T02:00:14.754Z,101206.28
2024-03-02T02:02:46.691Z,101211.28
2024-03-02T02:05:17.262Z,101211.28
2024-03-02T02:07:47.890Z,101214.19
2024-03-02T02:10:19.010Z,101207.50
2024-03-02T02:12:49.774Z,101203.56
2024-03-02T02:15:31.175Z,101179.63
2024-03-02T02:18:01.962Z,101209.56
2024-03-02T02:20:32.589Z,101215.84
2024-03-02T02:23:15.130Z,101208.31
2024-03-02T02:25:45.628Z,101212.72
2024-03-02T02:28:16.224Z,101207.50
2024-03-02T02:30:46.779Z,101194.97
2024-03-02T02:33:17.499Z,101203.31
2024-03-02T02:35:48.093Z,101202.88
2024-03-02T02:38:18.779Z,101206.22
2024-03-02T02:40:49.144Z,101203.06
2024-03-02T02:43:20.025Z,101198.28
2024-03-02T02:45:50.944Z,101174.38
2024-03-02T02:48:21.872Z,101199.31
2024-03-02T02:50:52.534Z,101201.97
2024-03-02T02:53:22.910Z,101202.59
2024-03-02T02:55:53.801Z,101199.44
2024-03-02T02:58:24.285Z,101204.44
2024-03-02T03:00:57.032Z,101194.84
2024-03-02T03:03:27.695Z,101192.78
2024-03-02T03:05:58.116Z,101189.44
2024-03-02T03:08:28.847Z,101181.97
2024-03-02T03:11:00.152Z,101183.19
2024-03-02T03:13:30.812Z,101180.06
2024-03-02T03:16:01.736Z,101176.56
2024-03-02T03:18:32.657Z,101171.91
2024-03-02T03:21:03.083Z,101172.34
2024-03-02T03:23:33.771Z,101171.09
2024-03-02T03:26:04.297Z,101167.31
2024-03-02T03:28:35.084Z,101168.53
2024-03-02T03:31:05.976Z,101161.06
2024-03-02T03:33:36.956Z,101149.78
2024-03-02T03:36:07.947Z,101142.25
2024-03-02T03:38:38.657Z,101142.88
2024-03-02T03:41:09.327Z,101141.63
2024-03-02T03:43:39.883Z,101141.38
2024-03-02T03:46:10.368Z,101144.28
2024-03-02T03:48:41.048Z,101127.81
2024-03-02T03:51:11.787Z,101140.69
2024-03-02T03:53:42.325Z,101134.22
2024-03-02T03:56:12.929Z,101124.59
2024-03-02T03:58:43.718Z,101125.22
2024-03-02T04:01:14.276Z,101127.47
2024-03-02T04:03:45.268Z,101090.44
2024-03-02T04:06:16.352Z,101114.09
2024-03-02T04:08:47.290Z,101108.84
2024-03-02T04:11:18.811Z,101107.78
2024-03-02T04:13:49.505Z,101109.22
2024-03-02T04:16:19.990Z,101106.88
2024-03-02T04:18:51.191Z,101097.53
2024-03-02T04:21:21.921Z,101095.56
2024-03-02T04:23:52.685Z,101093.25
2024-03-02T04:26:24.352Z,101090.59
2024-03-02T04:28:55.357Z,101088.84
2024-03-02T04:31:26.061Z,101090.44
2024-03-02T04:33:56.939Z,101085.81
2024-03-02T04:36:27.625Z,101077.59
2024-03-02T04:38:59.220Z,101069.00
2024-03-02T04:41:29.999Z,101060.03
2024-03-02T04:44:00.792Z,101050.75
2024-03-02T04:46:31.141Z,101063.03
2024-03-02T04:49:01.706Z,101060.97
2024-03-02T04:51:32.280Z,101053.03
2024-03-02T04:54:03.638Z,101050.16
2024-03-02T04:56:34.188Z,101046.56
2024-03-02T04:59:04.939Z,101045.72
2024-03-02T05:01:36.153Z,101039.28
2024-03-02T05:04:07.392Z,101034.06
2024-03-02T05:06:38.068Z,101035.72
2024-03-02T05:09:09.763Z,101028.84
2024-03-02T05:11:40.978Z,101026.38
2024-03-02T05:14:11.754Z,101023.47
2024-03-02T05:16:43.622Z,101009.31
2024-03-02T05:19:14.641Z,101006.16
2024-03-02T05:21:45.695Z,101001.97
2024-03-02T05:24:17.306Z,100997.63
2024-03-02T05:26:48.420Z,100991.75
2024-03-02T05:29:19.521Z,100991.78
2024-03-02T05:31:50.868Z,100964.69
2024-03-02T05:34:21.907Z,100967.38
2024-03-02T05:36:52.872Z,100951.53
2024-03-02T05:39:23.779Z,100956.53
2024-03-02T05:41:54.432Z,100957.91
2024-03-02T05:44:25.606Z,100941.66
2024-03-02T05:46:56.131Z,100937.06
2024-03-02T05:49:27.166Z,100941.22
2024-03-02T05:51:58.096Z,100926.66
2024-03-02T05:54:29.103Z,100931.88
2024-03-02T05:57:18.713Z,100923.75
2024-03-02T05:59:49.781Z,100916.19
2024-03-02T06:02:20.381Z,100907.47
2024-03-02T06:04:51.284Z,100898.34
2024-03-02T06:07:22.021Z,100898.75
2024-03-02T06:09:54.659Z,100877.88
2024-03-02T06:12:26.400Z,100879.31
2024-03-02T06:14:57.294Z,100876.00
2024-03-02T06:17:28.232Z,100883.66
2024-03-02T06:19:59.353Z,100871.19
2024-03-02T06:22:30.263Z,100865.31
2024-03-02T06:25:01.939Z,100863.22
2024-03-02T06:27:35.187Z,100861.09
2024-03-02T06:30:06.904Z,100846.69
2024-03-02T06:32:40.535Z,100841.06
2024-03-02T06:35:12.312Z,100845.50
2024-03-02T06:37:43.421Z,100842.41
2024-03-02T06:40:14.508Z,100837.44
2024-03-02T06:42:45.509Z,100828.53
2024-03-02T06:45:17.681Z,100829.41
2024-03-02T06:47:48.595Z,100816.34
2024-03-02T06:50:20.385Z,100817.91
2024-03-02T06:52:51.085Z,100807.75
2024-03-02T06:55:22.170Z,100796.59
2024-03-02T06:57:54.409Z,100805.47
2024-03-02T07:00:25.696Z,100785.28
2024-03-02T07:02:56.684Z,100783.06
2024-03-02T07:05:27.658Z,100781.88
2024-03-02T07:07:58.435Z,100781.91
2024-03-02T07:10:29.354Z,100768.88
2024-03-02T07:13:01.163Z,100763.94
2024-03-02T07:16:07.154Z,100757.78
2024-03-02T07:18:43.821Z,100759.06
2024-03-02T07:21:14.854Z,100759.78
2024-03-02T07:23:45.463Z,100751.97
2024-03-02T07:28:51.345Z,100746.97
2024-03-02T07:31:22.204Z,100747.91
2024-03-02T07:33:53.113Z,100740.69
2024-03-02T07:36:24.156Z,100736.44
2024-03-02T07:38:55.176Z,100727.31
2024-03-02T07:41:26.176Z,100728.50
2024-03-02T07:43:57.744Z,100729.06
2024-03-02T07:46:28.384Z,100718.88
2024-03-02T07:48:59.335Z,100728.19
2024-03-02T07:51:30.302Z,100716.81
2024-03-02T07:54:01.225Z,100713.38
2024-03-02T07:56:32.331Z,100705.53
2024-03-02T07:59:04.213Z,100717.00
2024-03-02T08:01:35.754Z,100714.97
2024-03-02T08:04:07.009Z,100713.31
2024-03-02T08:06:38.195Z,100721.06
2024-03-02T08:09:12.326Z,100717.66
2024-03-02T08:11:43.328Z,100716.34
2024-03-02T08:14:14.853Z,100726.72
2024-03-02T08:16:50.244Z,100718.63
2024-03-02T08:19:21.391Z,100718.03
2024-03-02T08:21:52.472Z,100703.41
2024-03-02T08:24:25.544Z,100731.97
2024-03-02T08:26:56.703Z,100725.47
2024-03-02T08:29:27.739Z,100725.94
2024-03-02T08:31:59.039Z,100720.25
2024-03-02T08:34:29.996Z,100726.91
2024-03-02T08:37:01.050Z,100731.34
2024-03-02T08:39:32.327Z,100733.72
2024-03-02T08:42:03.194Z,100732.19
2024-03-02T08:44:33.916Z,100735.41
2024-03-02T08:47:05.046Z,100735.50
2024-03-02T08:49:36.117Z,100729.44
2024-03-02T08:52:07.408Z,100728.72
2024-03-02T08:54:39.889Z,100730.69
2024-03-02T08:57:10.945Z,100729.06
2024-03-02T08:59:41.958Z,100734.00
2024-03-02T09:02:13.302Z,100730.47
2024-03-02T09:04:46.407Z,100702.47
2024-03-02T09:07:17.633Z,100731.38
2024-03-02T09:09:48.579Z,100733.00
2024-03-02T09:12:19.430Z,100732.09
2024-03-02T09:14:53.870Z,100732.69
2024-03-02T09:17:25.210Z,100729.47
2024-03-02T09:19:56.527Z,100741.75
2024-03-02T09:22:27.758Z,100746.38
2024-03-02T09:24:59.024Z,100739.44
2024-03-02T09:27:30.418Z,100746.56
2024-03-02T09:30:01.813Z,100747.63
2024-03-02T09:32:33.082Z,100749.03
2024-03-02T09:35:03.976Z,100756.63
2024-03-02T09:37:35.200Z,100746.22
2024-03-02T09:40:06.810Z,100763.25
2024-03-02T09:42:39.217Z,100757.03
2024-03-02T09:45:10.708Z,100752.66
2024-03-02T09:47:41.780Z,100754.97
2024-03-02T09:50:12.803Z,100752.66
2024-03-02T09:52:45.878Z,100738.31
2024-03-02T09:55:18.110Z,100761.44
2024-03-02T09:57:51.000Z,100760.75
2024-03-02T10:00:22.211Z,100769.50
2024-03-02T10:02:54.401Z,100769.34
2024-03-02T10:05:32.272Z,100784.84
2024-03-02T10:08:04.573Z,100782.22
2024-03-02T10:10:45.260Z,100771.53
2024-03-02T10:13:17.211Z,100753.47
2024-03-02T10:15:50.055Z,100788.16
2024-03-02T10:18:33.972Z,100778.50
2024-03-02T10:21:22.791Z,100786.44
2024-03-02T10:23:53.710Z,100789.81
2024-03-02T10:26:24.688Z,100791.94
2024-03-02T10:29:01.775Z,100785.94
2024-03-02T10:31:34.809Z,100793.28
2024-03-02T10:34:06.736Z,100792.94
2024-03-02T10:36:38.881Z,100805.56
2024-03-02T10:39:10.952Z,100795.75
2024-03-02T10:41:43.248Z,100807.31
2024-03-02T10:44:15.926Z,100804.03
2024-03-02T10:46:50.134Z,100806.97
2024-03-02T10:49:21.903Z,100800.88
2024-03-02T10:51:53.245Z,100786.81
2024-03-02T10:54:29.104Z,100805.50
2024-03-02T10:57:02.683Z,100792.78
2024-03-02T10:59:38.997Z,100802.28
2024-03-02T11:02:16.134Z,100781.78
2024-03-02T11:04:50.872Z,100755.09
2024-03-02T11:07:25.650Z,100808.75
2024-03-02T11:10:10.928Z,100819.03
2024-03-02T11:12:53.251Z,100783.09
2024-03-02T11:15:28.864Z,100804.84
2024-03-02T11:18:02.160Z,100780.78
2024-03-02T11:20:37.827Z,100809.78
2024-03-02T11:23:11.195Z,100817.19
2024-03-02T11:25:42.377Z,100818.34
2024-03-02T11:28:13.545Z,100818.00
2024-03-02T11:30:44.590Z,100821.06
2024-03-02T11:33:15.699Z,100813.78
2024-03-02T11:35:50.053Z,100783.50
2024-03-02T11:38:22.062Z,100820.00
2024-03-02T11:40:53.395Z,100830.41
2024-03-02T11:43:25.537Z,100823.28
2024-03-02T11:46:06.688Z,100824.09
2024-03-02T11:48:41.837Z,100837.66
2024-03-02T11:51:14.734Z,100801.22
2024-03-02T11:53:47.480Z,100834.34
2024-03-02T11:56:19.852Z,100843.56
2024-03-02T11:58:53.838Z,100844.53
2024-03-02T12:01:25.936Z,100844.53
2024-03-02T12:03:57.928Z,100859.72
2024-03-02T12:06:29.166Z,100854.78
2024-03-02T12:09:01.073Z,100858.41
2024-03-02T12:11:32.060Z,100866.22
2024-03-02T12:14:02.910Z,100866.03
2024-03-02T12:16:33.965Z,100880.72
2024-03-02T12:19:06.040Z,100886.75
2024-03-02T12:21:37.503Z,100891.38
2024-03-02T12:24:12.592Z,100890.66
2024-03-02T12:26:44.259Z,100892.19
2024-03-02T12:29:17.737Z,100896.09
2024-03-02T12:31:50.791Z,100888.66
2024-03-02T12:34:24.596Z,100889.94
2024-03-02T12:36:56.147Z,100894.66
2024-03-02T12:39:27.512Z,100904.50
2024-03-02T12:41:58.511Z,100904.16
2024-03-02T12:44:29.652Z,100903.78
2024-03-02T12:47:02.276Z,100913.53
2024-03-02T12:49:34.690Z,100915.44
2024-03-02T12:52:06.120Z,100927.72
2024-03-02T12:54:37.368Z,100925.13
2024-03-02T12:57:08.592Z,100917.66
2024-03-02T12:59:39.646Z,100929.84
2024-03-02T13:02:15.559Z,100933.06
2024-03-02T13:04:47.061Z,100934.59
2024-03-02T13:07:18.426Z,100931.75
2024-03-02T13:09:49.674Z,100940.50
2024-03-02T13:12:23.050Z,100939.09
2024-03-02T13:14:57.262Z,100948.56
2024-03-02T13:17:30.576Z,100947.13
2024-03-02T13:20:06.674Z,100947.38
2024-03-02T13:22:39.650Z,100948.69
2024-03-02T13:25:13.481Z,100942.44
2024-03-02T13:27:45.478Z,100939.09
2024-03-02T13:30:16.650Z,100941.22
2024-03-02T13:32:47.681Z,100945.03
2024-03-02T13:35:20.308Z,100952.59
2024-03-02T13:37:56.298Z,100963.94
2024-03-02T13:40:27.695Z,100967.13
2024-03-02T13:43:00.581Z,100962.53
2024-03-02T13:45:32.431Z,100970.31
2024-03-02T13:48:08.796Z,100972.41
2024-03-02T13:50:45.622Z,100980.59
2024-03-02T13:53:18.488Z,100971.25
2024-03-02T13:55:50.337Z,100976.31
2024-03-02T13:58:23.332Z,100979.28
2024-03-02T14:00:54.862Z,100980.09
2024-03-02T14:03:31.619Z,100920.50
2024-03-02T14:06:05.390Z,100984.59
2024-03-02T14:08:38.212Z,100984.47
2024-03-02T14:11:09.499Z,100993.22
2024-03-02T14:13:43.877Z,100987.88
2024-03-02T14:16:17.454Z,100999.13
2024-03-02T14:18:50.655Z,101003.75
2024-03-02T14:21:23.396Z,101018.84
2024-03-02T14:23:54.869Z,101013.06
2024-03-02T14:26:26.203Z,101007.63
2024-03-02T14:28:58.569Z,101013.88
2024-03-02T14:31:29.968Z,101020.41
2024-03-02T14:34:04.819Z,101016.25
2024-03-02T14:36:38.347Z,101014.47
2024-03-02T14:39:12.524Z,101022.34
2024-03-02T14:41:45.446Z,101027.59
2024-03-02T14:44:17.537Z,101035.47
2024-03-02T14:46:53.042Z,101031.13
2024-03-02T14:49:24.525Z,101033.13
2024-03-02T14:51:58.551Z,101035.31
2024-03-02T14:54:31.767Z,101035.81
2024-03-02T14:57:05.078Z,101045.47
2024-03-02T14:59:37.556Z,101047.72
2024-03-02T15:02:11.462Z,101056.03
2024-03-02T15:04:42.940Z,101056.47
2024-03-02T15:07:15.619Z,101063.28
2024-03-02T15:09:48.086Z,101075.00
2024-03-02T15:12:20.177Z,101086.28
2024-03-02T15:14:54.338Z,101089.75
2024-03-02T15:17:25.776Z,101086.53
2024-03-02T15:19:56.980Z,101072.34
2024-03-02T15:22:33.726Z,101082.00
2024-03-02T15:25:05.723Z,101060.94
2024-03-02T15:27:37.712Z,101075.16
2024-03-02T15:30:16.371Z,101078.31
2024-03-02T15:32:50.590Z,101078.31
2024-03-02T15:35:22.315Z,101062.41
2024-03-02T15:37:56.105Z,101079.25
2024-03-02T15:40:32.155Z,101085.50
2024-03-02T15:43:03.474Z,101075.59
2024-03-02T15:45:36.414Z,101085.56
2024-03-02T15:48:08.217Z,101058.97
2024-03-02T15:50:44.143Z,101076.03
2024-03-02T15:53:16.215Z,101081.47
2024-03-02T15:55:48.570Z,101076.53
2024-03-02T15:58:23.558Z,101077.75
2024-03-02T16:00:55.067Z,101069.44
2024-03-02T16:03:27.746Z,101075.31
2024-03-02T16:05:59.434Z,101074.09
2024-03-02T16:08:36.918Z,101070.81
2024-03-02T16:11:12.099Z,101069.13
2024-03-02T16:13:43.326Z,101074.78
2024-03-02T16:16:15.149Z,101069.59
2024-03-02T16:18:46.635Z,101066.22
2024-03-02T16:21:18.255Z,101074.38
2024-03-02T16:23:50.536Z,101078.56
2024-03-02T16:26:23.813Z,101069.00
2024-03-02T16:28:59.760Z,101071.91
2024-03-02T16:31:33.964Z,101066.28
2024-03-02T16:34:05.676Z,101063.22
2024-03-02T16:36:40.689Z,101061.72
2024-03-02T16:39:13.336Z,101061.53
2024-03-02T16:41:50.036Z,101059.25
2024-03-02T16:44:27.470Z,101045.72
2024-03-02T16:46:59.245Z,101054.28
2024-03-02T16:49:30.476Z,101047.66
2024-03-02T16:52:06.928Z,101050.16
2024-03-02T16:54:46.708Z,101049.97
2024-03-02T16:57:19.459Z,101049.97
2024-03-02T16:59:51.011Z,101037.25
2024-03-02T17:02:22.517Z,101031.88
2024-03-02T17:04:53.884Z,101039.16
2024-03-02T17:07:27.714Z,101033.31
2024-03-02T17:10:01.883Z,101034.78
2024-03-02T17:12:36.639Z,101027.50
2024-03-02T17:15:09.400Z,101023.56
2024-03-02T17:17:41.646Z,101013.97
2024-03-02T17:20:16.146Z,101018.56
2024-03-02T17:22:51.859Z,101010.25
2024-03-02T17:25:25.069Z,100982.41
2024-03-02T17:28:34.401Z,101009.81
2024-03-02T17:31:06.280Z,101002.34
2024-03-02T17:33:38.922Z,101004.84
2024-03-02T17:36:10.463Z,101000.25
2024-03-02T17:38:45.128Z,101000.47
2024-03-02T17:41:19.223Z,100961.84
2024-03-02T17:43:50.402Z,100983.84
2024-03-02T17:46:21.708Z,100991.75
2024-03-02T17:48:52.709Z,100990.75
2024-03-02T17:51:29.442Z,100990.72
2024-03-02T17:54:03.263Z,100989.06
2024-03-02T17:56:34.776Z,100977.44
2024-03-02T17:59:08.400Z,100976.38
2024-03-02T18:01:41.208Z,100970.97
2024-03-02T18:04:13.417Z,100964.53
2024-03-02T18:06:44.627Z,100963.31
2024-03-02T18:09:15.891Z,100959.75
2024-03-02T18:11:48.435Z,100958.50
2024-03-02T18:14:19.826Z,100966.59
2024-03-02T18:16:52.422Z,100952.88
2024-03-02T18:19:26.067Z,100929.63
2024-03-02T18:21:57.145Z,100956.56
2024-03-02T18:24:34.204Z,100949.09
2024-03-02T18:27:08.474Z,100943.25
2024-03-02T18:29:40.211Z,100945.75
2024-03-02T18:32:11.517Z,100943.25
2024-03-02T18:34:42.714Z,100933.66
2024-03-02T18:37:14.008Z,100942.19
2024-03-02T18:39:46.185Z,100932.41
2024-03-02T18:42:17.490Z,100944.47
2024-03-02T18:44:49.522Z,100934.06
2024-03-02T18:47:19.966Z,100939.84
2024-03-02T18:49:50.616Z,100928.19
2024-03-02T18:52:21.804Z,100931.53
2024-03-02T18:54:52.894Z,100925.72
2024-03-02T18:57:24.027Z,100928.81
2024-03-02T18:59:55.181Z,100925.72
2024-03-02T19:02:27.100Z,100935.66
2024-03-02T19:04:57.576Z,100931.75
2024-03-02T19:07:28.220Z,100920.69
2024-03-02T19:09:59.385Z,100929.38
2024-03-02T19:12:30.324Z,100926.47
2024-03-02T19:15:03.167Z,100924.41
2024-03-02T19:17:36.929Z,100927.72
2024-03-02T19:20:09.666Z,100925.22
2024-03-02T19:22:40.795Z,100911.75
2024-03-02T19:25:15.590Z,100927.06
2024-03-02T19:27:46.930Z,100929.75
2024-03-02T19:30:18.014Z,100923.72
2024-03-02T19:32:49.023Z,100928.75
2024-03-02T19:35:19.824Z,100926.03
2024-03-02T19:37:50.396Z,100921.22
2024-03-02T19:40:21.396Z,100931.59
2024-03-02T19:42:52.520Z,100929.75
2024-03-02T19:45:23.311Z,100928.06
2024-03-02T19:47:54.442Z,100930.16
2024-03-02T19:50:25.473Z,100928.44
2024-03-02T19:52:56.306Z,100925.19
2024-03-02T19:55:31.710Z,100927.88
2024-03-02T19:58:02.652Z,100925.75
2024-03-02T20:00:33.548Z,100923.91
2024-03-02T20:03:05.381Z,100921.78
2024-03-02T20:05:36.253Z,100905.59
2024-03-02T20:08:09.541Z,100919.31
2024-03-02T20:10:40.248Z,100919.94
2024-03-02T20:13:11.184Z,100918.25
2024-03-02T20:15:42.993Z,100908.47
2024-03-02T20:18:14.825Z,100919.69
2024-03-02T20:20:45.527Z,100916.16
2024-03-02T20:23:15.990Z,100914.06
2024-03-02T20:25:46.747Z,100905.94
2024-03-02T20:28:19.140Z,100903.88
2024-03-02T20:30:49.863Z,100908.88
2024-03-02T20:33:20.669Z,100915.09
2024-03-02T20:35:51.157Z,100910.50
2024-03-02T20:38:21.730Z,100911.38
2024-03-02T20:40:53.488Z,100918.88
2024-03-02T20:43:24.448Z,100915.53
2024-03-02T20:45:54.917Z,100929.25
2024-03-02T20:48:25.656Z,100928.63
2024-03-02T20:50:57.102Z,100929.69
2024-03-02T20:53:27.775Z,100930.53
2024-03-02T20:55:58.253Z,100925.09
2024-03-02T20:58:28.976Z,100927.63
2024-03-02T21:01:00.079Z,100933.03
2024-03-02T21:03:30.996Z,100934.69
2024-03-02T21:06:02.959Z,100937.59
2024-03-02T21:08:33.546Z,100912.06
2024-03-02T21:11:07.427Z,100932.16
2024-03-02T21:13:38.026Z,100937.59
2024-03-02T21:16:09.353Z,100940.09
2024-03-02T21:18:41.271Z,100947.16
2024-03-02T21:21:15.142Z,100950.91
2024-03-02T21:23:45.640Z,100938.88
2024-03-02T21:26:15.905Z,100945.50
2024-03-02T21:28:47.319Z,100948.66
2024-03-02T21:31:18.815Z,100952.56
2024-03-02T21:33:49.655Z,100951.97
2024-03-02T21:36:20.170Z,100945.94
2024-03-02T21:38:50.751Z,100957.97
2024-03-02T21:41:21.141Z,100953.19
2024-03-02T21:43:51.978Z,100950.91
2024-03-02T21:46:22.668Z,100952.19
2024-03-02T21:48:53.736Z,100950.91
2024-03-02T21:51:24.590Z,100955.94
2024-03-02T21:53:55.876Z,100956.34
2024-03-02T21:56:27.053Z,100957.97
2024-03-02T21:58:57.691Z,100965.50
2024-03-02T22:01:29.296Z,100967.16
2024-03-02T22:03:59.725Z,100975.53
2024-03-02T22:06:30.102Z,100973.84
2024-03-02T22:09:00.857Z,100980.50
2024-03-02T22:11:31.192Z,100980.50
2024-03-02T22:14:01.977Z,100959.53
2024-03-02T22:16:32.662Z,100988.44
2024-03-02T22:19:03.019Z,100989.44
2024-03-02T22:21:33.521Z,100986.31
2024-03-02T22:24:04.301Z,100991.34
2024-03-02T22:26:34.946Z,101002.31
2024-03-02T22:29:06.141Z,101003.75
2024-03-02T22:31:36.926Z,101007.31
2024-03-02T22:34:07.863Z,101020.00
2024-03-02T22:36:39.067Z,101022.72
2024-03-02T22:39:09.946Z,101020.00
2024-03-02T22:41:40.798Z,101026.28
2024-03-02T22:44:11.303Z,101012.94
2024-03-02T22:46:41.982Z,101027.94
2024-03-02T22:49:12.811Z,101026.06
2024-03-02T22:51:43.685Z,101028.13
2024-03-02T22:54:14.221Z,101028.75
2024-03-02T22:56:46.042Z,101036.25
2024-03-02T22:59:16.341Z,101042.97
2024-03-02T23:01:46.964Z,101033.78
2024-03-02T23:04:17.923Z,101058.59
2024-03-02T23:06:48.612Z,101055.47
2024-03-02T23:09:19.203Z,101057.56
2024-03-02T23:11:51.016Z,101055.06
2024-03-02T23:14:21.788Z,101058.59
2024-03-02T23:16:52.214Z,101069.22
2024-03-02T23:19:24.392Z,101071.94
2024-03-02T23:21:55.093Z,101074.63
2024-03-02T23:24:25.703Z,101076.94
2024-03-02T23:26:56.020Z,101074.44
2024-03-02T23:29:27.325Z,101083.41
2024-03-02T23:31:57.983Z,101088.81
2024-03-02T23:34:29.825Z,101088.81
2024-03-02T23:37:00.521Z,101078.81
2024-03-02T23:39:49.218Z,101080.50
2024-03-02T23:42:19.956Z,101082.13
2024-03-02T23:44:50.609Z,101094.22
2024-03-02T23:47:21.266Z,101095.91
2024-03-02T23:49:51.966Z,101089.44
2024-03-02T23:52:22.528Z,101096.72
2024-03-02T23:54:53.083Z,101097.75
2024-03-02T23:57:23.724Z,101102.16
2024-03-02T23:59:54.424Z,101105.88
